sensor_id;sensor_type;location;lat;lon;timestamp;pressure;altitude;pressure_sealevel;temperature;humidity
81913;BME280;71377;50.698;7.164;2024-01-30T00:00:07;102173.97;;;7.81;86.82
81913;BME280;71377;50.698;7.164;2024-01-30T00:02:34;102176.59;;;7.79;88.06
81913;BME280;71377;50.698;7.164;2024-01-30T00:05:01;102174.84;;;8.15;85.17
81913;BME280;71377;50.698;7.164;2024-01-30T00:07:27;102179.22;;;8.11;85.80
81913;BME280;71377;50.698;7.164;2024-01-30T00:09:54;102175.75;;;8.09;86.08
81913;BME280;71377;50.698;7.164;2024-01-30T00:12:21;102175.72;;;8.03;86.37
81913;BME280;71377;50.698;7.164;2024-01-30T00:14:47;102180.06;;;8.32;85.60
81913;BME280;71377;50.698;7.164;2024-01-30T00:17:18;102173.09;;;8.20;85.05
81913;BME280;71377;50.698;7.164;2024-01-30T00:19:45;102172.25;;;7.84;86.95
81913;BME280;71377;50.698;7.164;2024-01-30T00:22:12;102174.88;;;8.00;86.77
81913;BME280;71377;50.698;7.164;2024-01-30T00:24:38;102172.22;;;8.15;84.49
81913;BME280;71377;50.698;7.164;2024-01-30T00:27:04;102167.03;;;7.92;86.32
81913;BME280;71377;50.698;7.164;2024-01-30T00:29:31;102167.00;;;7.98;87.17
81913;BME280;71377;50.698;7.164;2024-01-30T00:31:59;102174.84;;;8.15;86.27
81913;BME280;71377;50.698;7.164;2024-01-30T00:34:26;102167.88;;;7.99;85.28
81913;BME280;71377;50.698;7.164;2024-01-30T00:36:52;102162.66;;;7.94;86.51
81913;BME280;71377;50.698;7.164;2024-01-30T00:39:19;102160.03;;;8.03;86.17
81913;BME280;71377;50.698;7.164;2024-01-30T00:41:46;102154.78;;;8.37;85.59
81913;BME280;71377;50.698;7.164;2024-01-30T00:44:12;102160.03;;;8.09;84.91
81913;BME280;71377;50.698;7.164;2024-01-30T00:46:39;102163.50;;;8.45;84.41
81913;BME280;71377;50.698;7.164;2024-01-30T00:49:05;102156.53;;;8.29;83.00
81913;BME280;71377;50.698;7.164;2024-01-30T00:51:31;102159.16;;;8.06;84.80
81913;BME280;71377;50.698;7.164;2024-01-30T00:53:58;102156.53;;;8.13;84.41
81913;BME280;71377;50.698;7.164;2024-01-30T00:56:24;102151.31;;;7.89;86.51
81913;BME280;71377;50.698;7.164;2024-01-30T00:58:51;102154.81;;;7.77;87.53
81913;BME280;71377;50.698;7.164;2024-01-30T01:01:17;102146.06;;;8.10;87.35
81913;BME280;71377;50.698;7.164;2024-01-30T01:03:44;102157.41;;;8.05;86.31
81913;BME280;71377;50.698;7.164;2024-01-30T01:06:10;102153.94;;;7.77;86.94
81913;BME280;71377;50.698;7.164;2024-01-30T01:08:37;102146.94;;;7.80;87.51
81913;BME280;71377;50.698;7.164;2024-01-30T01:11:03;102153.94;;;7.86;86.62
81913;BME280;71377;50.698;7.164;2024-01-30T01:13:30;102153.91;;;7.97;86.65
81913;BME280;71377;50.698;7.164;2024-01-30T01:15:56;102155.69;;;8.02;85.77
81913;BME280;71377;50.698;7.164;2024-01-30T01:18:23;102147.81;;;8.10;85.98
81913;BME280;71377;50.698;7.164;2024-01-30T01:20:49;102148.66;;;8.22;84.49
81913;BME280;71377;50.698;7.164;2024-01-30T01:23:15;102155.69;;;8.02;84.88
81913;BME280;71377;50.698;7.164;2024-01-30T01:25:42;102147.84;;;8.01;85.67
81913;BME280;71377;50.698;7.164;2024-01-30T01:28:08;102154.81;;;7.83;86.41
81913;BME280;71377;50.698;7.164;2024-01-30T01:30:34;102164.38;;;7.68;88.29
81913;BME280;71377;50.698;7.164;2024-01-30T01:33:02;102156.53;;;7.89;87.01
81913;BME280;71377;50.698;7.164;2024-01-30T01:35:29;102160.03;;;7.86;87.22
81913;BME280;71377;50.698;7.164;2024-01-30T01:37:55;102156.56;;;7.86;86.34
81913;BME280;71377;50.698;7.164;2024-01-30T01:40:25;102154.78;;;7.70;87.63
81913;BME280;71377;50.698;7.164;2024-01-30T01:42:53;102158.25;;;7.52;88.49
81913;BME280;71377;50.698;7.164;2024-01-30T01:45:21;102154.75;;;7.44;89.22
81913;BME280;71377;50.698;7.164;2024-01-30T01:47:50;102153.91;;;7.63;89.48
81913;BME280;71377;50.698;7.164;2024-01-30T01:50:18;102159.97;;;7.45;88.48
81913;BME280;71377;50.698;7.164;2024-01-30T01:52:49;102156.53;;;7.48;89.73
81913;BME280;71377;50.698;7.164;2024-01-30T01:55:17;102168.72;;;7.41;88.41
81913;BME280;71377;50.698;7.164;2024-01-30T01:57:48;102154.66;;;7.12;90.62
81913;BME280;71377;50.698;7.164;2024-01-30T02:00:15;102160.75;;;7.07;92.38
81913;BME280;71377;50.698;7.164;2024-01-30T02:02:43;102157.28;;;7.07;92.10
81913;BME280;71377;50.698;7.164;2024-01-30T02:05:11;102145.13;;;7.26;90.68
81913;BME280;71377;50.698;7.164;2024-01-30T02:07:38;102142.53;;;7.35;90.22
81913;BME280;71377;50.698;7.164;2024-01-30T02:10:05;102149.50;;;7.25;90.59
81913;BME280;71377;50.698;7.164;2024-01-30T02:12:31;102148.59;;;7.17;91.46
81913;BME280;71377;50.698;7.164;2024-01-30T02:14:58;102149.50;;;7.28;90.78
81913;BME280;71377;50.698;7.164;2024-01-30T02:17:24;102145.16;;;7.35;90.02
81913;BME280;71377;50.698;7.164;2024-01-30T02:19:51;102143.41;;;7.22;90.50
81913;BME280;71377;50.698;7.164;2024-01-30T02:22:19;102135.56;;;7.46;89.43
81913;BME280;71377;50.698;7.164;2024-01-30T02:24:46;102145.19;;;7.61;88.43
81913;BME280;71377;50.698;7.164;2024-01-30T02:27:12;102138.22;;;7.48;89.13
81913;BME280;71377;50.698;7.164;2024-01-30T02:29:39;102146.03;;;7.55;89.13
81913;BME280;71377;50.698;7.164;2024-01-30T02:32:05;102140.84;;;7.63;87.57
81913;BME280;71377;50.698;7.164;2024-01-30T02:34:32;102133.88;;;7.60;88.24
81913;BME280;71377;50.698;7.164;2024-01-30T02:36:59;102134.75;;;7.75;86.38
81913;BME280;71377;50.698;7.164;2024-01-30T02:39:25;102140.81;;;7.52;86.83
81913;BME280;71377;50.698;7.164;2024-01-30T02:41:51;102133.00;;;7.61;87.35
81913;BME280;71377;50.698;7.164;2024-01-30T02:44:18;102139.09;;;7.60;87.56
81913;BME280;71377;50.698;7.164;2024-01-30T02:46:44;102133.84;;;7.51;88.34
81913;BME280;71377;50.698;7.164;2024-01-30T02:49:11;102138.22;;;7.72;87.71
81913;BME280;71377;50.698;7.164;2024-01-30T02:51:37;102126.88;;;7.61;87.12
81913;BME280;71377;50.698;7.164;2024-01-30T02:54:04;102126.88;;;7.52;88.10
81913;BME280;71377;50.698;7.164;2024-01-30T02:56:30;102130.38;;;7.52;87.16
81913;BME280;71377;50.698;7.164;2024-01-30T02:58:56;102126.91;;;7.47;87.37
81913;BME280;71377;50.698;7.164;2024-01-30T03:01:23;102128.59;;;7.30;88.87
81913;BME280;71377;50.698;7.164;2024-01-30T03:03:50;102126.84;;;7.26;89.23
81913;BME280;71377;50.698;7.164;2024-01-30T03:06:17;102120.75;;;7.22;89.64
81913;BME280;71377;50.698;7.164;2024-01-30T03:08:46;102126.84;;;7.35;88.76
81913;BME280;71377;50.698;7.164;2024-01-30T03:11:12;102122.53;;;7.61;86.65
81913;BME280;71377;50.698;7.164;2024-01-30T03:13:39;102117.31;;;7.69;86.22
81913;BME280;71377;50.698;7.164;2024-01-30T03:16:05;102123.38;;;7.36;87.43
81913;BME280;71377;50.698;7.164;2024-01-30T03:18:32;102130.34;;;7.34;89.35
81913;BME280;71377;50.698;7.164;2024-01-30T03:20:58;102120.72;;;7.28;89.03
81913;BME280;71377;50.698;7.164;2024-01-30T03:23:25;102125.13;;;7.31;89.28
81913;BME280;71377;50.698;7.164;2024-01-30T03:25:51;102114.59;;;7.09;89.80
81913;BME280;71377;50.698;7.164;2024-01-30T03:28:17;102123.28;;;7.02;90.87
81913;BME280;71377;50.698;7.164;2024-01-30T03:30:44;102115.47;;;7.10;91.05
81913;BME280;71377;50.698;7.164;2024-01-30T03:33:10;102124.19;;;7.20;90.23
81913;BME280;71377;50.698;7.164;2024-01-30T03:35:37;102119.88;;;7.22;89.59
81913;BME280;71377;50.698;7.164;2024-01-30T03:38:03;102124.25;;;7.30;89.06
81913;BME280;71377;50.698;7.164;2024-01-30T03:40:30;102117.28;;;7.32;88.11
81913;BME280;71377;50.698;7.164;2024-01-30T03:42:56;102116.34;;;7.20;88.75
81913;BME280;71377;50.698;7.164;2024-01-30T03:45:23;102122.47;;;7.19;89.15
81913;BME280;71377;50.698;7.164;2024-01-30T03:47:49;102123.38;;;7.36;89.63
81913;BME280;71377;50.698;7.164;2024-01-30T03:50:15;102128.59;;;7.31;89.62
81913;BME280;71377;50.698;7.164;2024-01-30T03:52:42;102122.44;;;7.09;89.42
81913;BME280;71377;50.698;7.164;2024-01-30T03:55:08;102121.47;;;6.86;91.43
81913;BME280;71377;50.698;7.164;2024-01-30T03:57:35;102120.63;;;6.81;91.68
81913;BME280;71377;50.698;7.164;2024-01-30T04:00:01;102125.03;;;6.96;91.72
81913;BME280;71377;50.698;7.164;2024-01-30T04:02:31;102130.25;;;6.97;90.91
81913;BME280;71377;50.698;7.164;2024-01-30T04:04:57;102125.84;;;6.83;90.67
81913;BME280;71377;50.698;7.164;2024-01-30T04:07:25;102128.44;;;6.81;91.77
81913;BME280;71377;50.698;7.164;2024-01-30T04:09:51;102124.94;;;6.76;92.31
81913;BME280;71377;50.698;7.164;2024-01-30T04:12:18;102115.47;;;7.07;90.31
81913;BME280;71377;50.698;7.164;2024-01-30T04:14:44;102115.47;;;7.05;90.47
81913;BME280;71377;50.698;7.164;2024-01-30T04:17:10;102114.59;;;7.09;90.04
81913;BME280;71377;50.698;7.164;2024-01-30T04:19:37;102118.97;;;7.04;90.23
81913;BME280;71377;50.698;7.164;2024-01-30T04:22:04;102111.09;;;7.00;90.48
81913;BME280;71377;50.698;7.164;2024-01-30T04:24:33;102104.16;;;7.06;90.64
81913;BME280;71377;50.698;7.164;2024-01-30T04:27:00;102110.28;;;7.16;89.68
81913;BME280;71377;50.698;7.164;2024-01-30T04:29:26;102105.91;;;7.29;89.05
81913;BME280;71377;50.698;7.164;2024-01-30T04:31:53;102105.94;;;7.38;87.85
81913;BME280;71377;50.698;7.164;2024-01-30T04:34:19;102102.47;;;7.39;87.75
81913;BME280;71377;50.698;7.164;2024-01-30T04:36:46;102102.47;;;7.39;88.22
81913;BME280;71377;50.698;7.164;2024-01-30T04:39:12;102087.66;;;7.40;87.12
81913;BME280;71377;50.698;7.164;2024-01-30T04:41:39;102091.09;;;7.17;88.49
81913;BME280;71377;50.698;7.164;2024-01-30T04:44:06;102091.06;;;7.11;89.43
81913;BME280;71377;50.698;7.164;2024-01-30T04:46:33;102090.22;;;7.12;88.63
81913;BME280;71377;50.698;7.164;2024-01-30T04:49:00;102098.97;;;7.22;88.38
81913;BME280;71377;50.698;7.164;2024-01-30T04:51:27;102096.28;;;7.00;89.53
81913;BME280;71377;50.698;7.164;2024-01-30T04:53:53;102089.31;;;6.96;89.37
81913;BME280;71377;50.698;7.164;2024-01-30T04:56:20;102082.34;;;7.00;89.78
81913;BME280;71377;50.698;7.164;2024-01-30T04:58:46;102084.13;;;7.07;89.70
81913;BME280;71377;50.698;7.164;2024-01-30T05:01:16;102088.44;;;6.88;90.36
81913;BME280;71377;50.698;7.164;2024-01-30T05:03:43;102091.94;;;6.98;89.57
81913;BME280;71377;50.698;7.164;2024-01-30T05:06:10;102095.44;;;7.11;89.19
81913;BME280;71377;50.698;7.164;2024-01-30T05:08:37;102093.69;;;7.00;89.34
81913;BME280;71377;50.698;7.164;2024-01-30T05:11:05;102093.66;;;7.03;89.34
81913;BME280;71377;50.698;7.164;2024-01-30T05:13:31;102093.63;;;6.85;89.99
81913;BME280;71377;50.698;7.164;2024-01-30T05:15:58;102095.41;;;6.97;90.04
81913;BME280;71377;50.698;7.164;2024-01-30T05:18:24;102105.81;;;6.83;90.59
81913;BME280;71377;50.698;7.164;2024-01-30T05:20:51;102110.13;;;6.70;91.49
81913;BME280;71377;50.698;7.164;2024-01-30T05:23:17;102113.63;;;6.72;91.70
81913;BME280;71377;50.698;7.164;2024-01-30T05:25:44;102112.75;;;6.72;91.53
81913;BME280;71377;50.698;7.164;2024-01-30T05:28:10;102117.06;;;6.64;92.50
81913;BME280;71377;50.698;7.164;2024-01-30T05:30:37;102112.72;;;6.69;92.15
81913;BME280;71377;50.698;7.164;2024-01-30T05:33:03;102104.13;;;6.97;90.51
81913;BME280;71377;50.698;7.164;2024-01-30T05:35:30;102104.06;;;6.85;89.82
81913;BME280;71377;50.698;7.164;2024-01-30T05:37:57;102096.22;;;6.79;89.74
81913;BME280;71377;50.698;7.164;2024-01-30T05:40:23;102110.09;;;6.64;91.71
81913;BME280;71377;50.698;7.164;2024-01-30T05:42:50;102109.22;;;6.61;92.18
81913;BME280;71377;50.698;7.164;2024-01-30T05:45:16;102106.63;;;6.68;92.12
81913;BME280;71377;50.698;7.164;2024-01-30T05:47:43;102109.22;;;6.67;91.25
81913;BME280;71377;50.698;7.164;2024-01-30T05:50:09;102105.81;;;6.78;91.25
81913;BME280;71377;50.698;7.164;2024-01-30T05:52:36;102110.19;;;6.90;90.32
81913;BME280;71377;50.698;7.164;2024-01-30T05:55:02;102105.88;;;7.01;89.06
81913;BME280;71377;50.698;7.164;2024-01-30T05:57:29;102107.56;;;6.84;90.05
81913;BME280;71377;50.698;7.164;2024-01-30T05:59:56;102098.03;;;6.95;88.73
81913;BME280;71377;50.698;7.164;2024-01-30T06:02:22;102093.66;;;6.88;90.71
81913;BME280;71377;50.698;7.164;2024-01-30T06:04:49;102085.75;;;6.70;90.97
81913;BME280;71377;50.698;7.164;2024-01-30T06:07:15;102090.94;;;6.68;91.55
81913;BME280;71377;50.698;7.164;2024-01-30T06:09:42;102091.78;;;6.54;91.81
81913;BME280;71377;50.698;7.164;2024-01-30T06:12:08;102100.47;;;6.56;92.43
81913;BME280;71377;50.698;7.164;2024-01-30T06:14:34;102095.34;;;6.69;91.74
81913;BME280;71377;50.698;7.164;2024-01-30T06:17:01;102088.34;;;6.64;91.82
81913;BME280;71377;50.698;7.164;2024-01-30T06:19:27;102090.94;;;6.67;91.49
81913;BME280;71377;50.698;7.164;2024-01-30T06:21:54;102096.19;;;6.71;91.70
81913;BME280;71377;50.698;7.164;2024-01-30T06:24:20;102090.91;;;6.59;91.59
81913;BME280;71377;50.698;7.164;2024-01-30T06:26:47;102091.78;;;6.60;91.28
81913;BME280;71377;50.698;7.164;2024-01-30T06:29:13;102092.66;;;6.56;91.76
81913;BME280;71377;50.698;7.164;2024-01-30T06:31:44;102083.06;;;6.58;91.50
81913;BME280;71377;50.698;7.164;2024-01-30T06:34:10;102089.28;;;6.78;90.15
81913;BME280;71377;50.698;7.164;2024-01-30T06:36:38;102091.84;;;6.72;90.12
81913;BME280;71377;50.698;7.164;2024-01-30T06:39:05;102097.97;;;6.78;90.03
81913;BME280;71377;50.698;7.164;2024-01-30T06:41:31;102097.91;;;6.65;90.24
81913;BME280;71377;50.698;7.164;2024-01-30T06:43:58;102096.13;;;6.56;90.74
81913;BME280;71377;50.698;7.164;2024-01-30T06:46:24;102094.47;;;6.72;91.04
81913;BME280;71377;50.698;7.164;2024-01-30T06:48:51;102102.28;;;6.72;90.62
81913;BME280;71377;50.698;7.164;2024-01-30T06:51:17;102101.38;;;6.68;90.95
81913;BME280;71377;50.698;7.164;2024-01-30T06:53:44;102104.88;;;6.64;91.20
81913;BME280;71377;50.698;7.164;2024-01-30T06:56:10;102109.25;;;6.70;91.38
81913;BME280;71377;50.698;7.164;2024-01-30T06:58:37;102111.03;;;6.83;89.92
81913;BME280;71377;50.698;7.164;2024-01-30T07:01:03;102101.50;;;6.88;88.54
81913;BME280;71377;50.698;7.164;2024-01-30T07:03:30;102103.19;;;6.82;88.35
81913;BME280;71377;50.698;7.164;2024-01-30T07:05:56;102096.25;;;6.94;88.26
81913;BME280;71377;50.698;7.164;2024-01-30T07:08:23;102093.69;;;6.96;89.09
81913;BME280;71377;50.698;7.164;2024-01-30T07:10:49;102093.59;;;6.70;90.02
81913;BME280;71377;50.698;7.164;2024-01-30T07:13:16;102098.81;;;6.70;89.74
81913;BME280;71377;50.698;7.164;2024-01-30T07:15:43;102097.88;;;6.54;89.86
81913;BME280;71377;50.698;7.164;2024-01-30T07:18:09;102096.13;;;6.56;90.87
81913;BME280;71377;50.698;7.164;2024-01-30T07:20:36;102091.78;;;6.54;90.56
81913;BME280;71377;50.698;7.164;2024-01-30T07:23:02;102091.78;;;6.54;90.88
81913;BME280;71377;50.698;7.164;2024-01-30T07:25:29;102081.41;;;6.72;90.42
81913;BME280;71377;50.698;7.164;2024-01-30T07:27:56;102076.22;;;6.78;89.56
81913;BME280;71377;50.698;7.164;2024-01-30T07:30:23;102080.50;;;6.67;90.14
81913;BME280;71377;50.698;7.164;2024-01-30T07:32:49;102084.84;;;6.62;91.04
81913;BME280;71377;50.698;7.164;2024-01-30T07:35:16;102083.19;;;6.79;89.32
81913;BME280;71377;50.698;7.164;2024-01-30T07:37:42;102082.28;;;6.77;89.60
81913;BME280;71377;50.698;7.164;2024-01-30T07:40:09;102081.47;;;6.90;90.27
81913;BME280;71377;50.698;7.164;2024-01-30T07:42:36;102086.66;;;6.81;90.21
81913;BME280;71377;50.698;7.164;2024-01-30T07:45:02;102086.69;;;6.87;90.10
81913;BME280;71377;50.698;7.164;2024-01-30T07:47:29;102089.28;;;6.95;90.42
81913;BME280;71377;50.698;7.164;2024-01-30T07:49:55;102092.81;;;7.00;89.16
81913;BME280;71377;50.698;7.164;2024-01-30T07:52:22;102093.69;;;7.06;89.34
81913;BME280;71377;50.698;7.164;2024-01-30T07:54:49;102095.47;;;7.26;88.23
81913;BME280;71377;50.698;7.164;2024-01-30T07:57:16;102104.19;;;7.23;87.82
81913;BME280;71377;50.698;7.164;2024-01-30T07:59:45;102100.69;;;7.26;87.85
81913;BME280;71377;50.698;7.164;2024-01-30T08:02:12;102101.53;;;7.09;88.21
81913;BME280;71377;50.698;7.164;2024-01-30T08:04:41;102105.91;;;7.14;88.20
81913;BME280;71377;50.698;7.164;2024-01-30T08:07:08;102112.91;;;7.28;87.28
81913;BME280;71377;50.698;7.164;2024-01-30T08:09:35;102114.66;;;7.37;87.27
81913;BME280;71377;50.698;7.164;2024-01-30T08:12:02;102118.13;;;7.36;87.30
81913;BME280;71377;50.698;7.164;2024-01-30T08:14:28;102119.88;;;7.25;88.35
81913;BME280;71377;50.698;7.164;2024-01-30T08:16:55;102123.41;;;7.48;88.12
81913;BME280;71377;50.698;7.164;2024-01-30T08:19:21;102122.50;;;7.54;87.32
81913;BME280;71377;50.698;7.164;2024-01-30T08:21:48;102131.25;;;7.56;87.09
81913;BME280;71377;50.698;7.164;2024-01-30T08:24:15;102130.38;;;7.58;87.05
81913;BME280;71377;50.698;7.164;2024-01-30T08:26:41;102129.53;;;7.73;85.85
81913;BME280;71377;50.698;7.164;2024-01-30T08:29:08;102126.00;;;7.60;86.33
81913;BME280;71377;50.698;7.164;2024-01-30T08:31:34;102121.66;;;7.69;86.51
81913;BME280;71377;50.698;7.164;2024-01-30T08:34:01;102119.94;;;7.77;85.30
81913;BME280;71377;50.698;7.164;2024-01-30T08:36:28;102118.19;;;7.85;85.30
81913;BME280;71377;50.698;7.164;2024-01-30T08:38:54;102113.81;;;7.79;85.30
81913;BME280;71377;50.698;7.164;2024-01-30T08:41:27;102110.31;;;7.85;85.21
81913;BME280;71377;50.698;7.164;2024-01-30T08:43:53;102109.47;;;7.84;85.22
81913;BME280;71377;50.698;7.164;2024-01-30T08:46:20;102105.09;;;7.96;84.66
81913;BME280;71377;50.698;7.164;2024-01-30T08:48:47;102097.25;;;7.91;84.24
81913;BME280;71377;50.698;7.164;2024-01-30T08:51:14;102099.81;;;8.06;83.67
81913;BME280;71377;50.698;7.164;2024-01-30T08:53:41;102104.22;;;7.93;84.41
81913;BME280;71377;50.698;7.164;2024-01-30T08:56:08;102107.72;;;7.76;85.14
81913;BME280;71377;50.698;7.164;2024-01-30T08:58:34;102111.16;;;7.99;83.58
81913;BME280;71377;50.698;7.164;2024-01-30T09:01:01;102119.03;;;8.01;83.05
81913;BME280;71377;50.698;7.164;2024-01-30T09:03:27;102121.63;;;7.99;83.42
81913;BME280;71377;50.698;7.164;2024-01-30T09:05:54;102131.25;;;7.85;84.19
81913;BME280;71377;50.698;7.164;2024-01-30T09:08:20;102138.22;;;8.01;83.95
81913;BME280;71377;50.698;7.164;2024-01-30T09:10:47;102143.47;;;8.10;82.92
81913;BME280;71377;50.698;7.164;2024-01-30T09:13:16;102141.72;;;8.09;83.09
81913;BME280;71377;50.698;7.164;2024-01-30T09:15:42;102137.34;;;8.27;83.62
81913;BME280;71377;50.698;7.164;2024-01-30T09:18:09;102146.91;;;8.31;82.07
81913;BME280;71377;50.698;7.164;2024-01-30T09:20:36;102144.31;;;8.28;83.11
81913;BME280;71377;50.698;7.164;2024-01-30T09:23:02;102156.53;;;8.26;83.40
81913;BME280;71377;50.698;7.164;2024-01-30T09:25:29;102152.16;;;8.38;82.95
81913;BME280;71377;50.698;7.164;2024-01-30T09:27:55;102146.91;;;8.46;82.35
81913;BME280;71377;50.698;7.164;2024-01-30T09:30:22;102156.44;;;8.71;80.84
81913;BME280;71377;50.698;7.164;2024-01-30T09:32:48;102160.81;;;8.66;80.38
81913;BME280;71377;50.698;7.164;2024-01-30T09:35:14;102161.66;;;8.74;80.40
81913;BME280;71377;50.698;7.164;2024-01-30T09:37:41;102158.19;;;8.66;80.95
81913;BME280;71377;50.698;7.164;2024-01-30T09:40:08;102149.38;;;8.86;80.27
81913;BME280;71377;50.698;7.164;2024-01-30T09:42:35;102155.47;;;8.94;79.45
81913;BME280;71377;50.698;7.164;2024-01-30T09:45:03;102171.97;;;9.17;77.52
81913;BME280;71377;50.698;7.164;2024-01-30T09:47:37;102158.78;;;9.34;78.30
81913;BME280;71377;50.698;7.164;2024-01-30T09:50:06;102152.56;;;9.46;76.79
81913;BME280;71377;50.698;7.164;2024-01-30T09:52:33;102164.69;;;9.65;76.37
81913;BME280;71377;50.698;7.164;2024-01-30T09:55:00;102165.25;;;10.04;75.62
81913;BME280;71377;50.698;7.164;2024-01-30T09:57:27;102173.06;;;10.11;74.55
81913;BME280;71377;50.698;7.164;2024-01-30T09:59:54;102169.44;;;10.29;73.42
81913;BME280;71377;50.698;7.164;2024-01-30T10:02:21;102170.97;;;10.52;72.41
81913;BME280;71377;50.698;7.164;2024-01-30T10:04:49;102158.50;;;10.69;72.46
81913;BME280;71377;50.698;7.164;2024-01-30T10:07:17;102162.97;;;10.59;72.02
81913;BME280;71377;50.698;7.164;2024-01-30T10:09:44;102159.59;;;10.48;72.42
81913;BME280;71377;50.698;7.164;2024-01-30T10:12:10;102173.72;;;10.38;72.53
81913;BME280;71377;50.698;7.164;2024-01-30T10:14:41;102170.28;;;10.31;73.03
81913;BME280;71377;50.698;7.164;2024-01-30T10:17:09;102165.22;;;10.10;73.24
81913;BME280;71377;50.698;7.164;2024-01-30T10:19:49;102169.63;;;10.05;73.37
81913;BME280;71377;50.698;7.164;2024-01-30T10:22:17;102173.25;;;9.91;73.68
81913;BME280;71377;50.698;7.164;2024-01-30T10:24:45;102175.78;;;10.01;74.11
81913;BME280;71377;50.698;7.164;2024-01-30T10:27:12;102173.09;;;10.10;74.19
81913;BME280;71377;50.698;7.164;2024-01-30T10:29:38;102172.09;;;10.23;73.63
81913;BME280;71377;50.698;7.164;2024-01-30T10:32:05;102177.44;;;10.12;74.27
81913;BME280;71377;50.698;7.164;2024-01-30T10:34:32;102169.50;;;10.15;74.47
81913;BME280;71377;50.698;7.164;2024-01-30T10:37:07;102176.59;;;10.09;74.47
81913;BME280;71377;50.698;7.164;2024-01-30T10:39:39;102176.56;;;10.12;73.83
81913;BME280;71377;50.698;7.164;2024-01-30T10:42:13;102173.78;;;10.30;75.55
81913;BME280;71377;50.698;7.164;2024-01-30T10:45:18;102178.00;;;10.46;74.82
81913;BME280;71377;50.698;7.164;2024-01-30T10:47:49;102171.13;;;10.36;74.40
81913;BME280;71377;50.698;7.164;2024-01-30T10:50:16;102172.84;;;10.37;74.33
81913;BME280;71377;50.698;7.164;2024-01-30T10:52:43;102166.66;;;10.44;73.20
81913;BME280;71377;50.698;7.164;2024-01-30T10:55:11;102169.19;;;10.51;73.35
81913;BME280;71377;50.698;7.164;2024-01-30T10:57:37;102165.81;;;10.42;73.59
81913;BME280;71377;50.698;7.164;2024-01-30T11:00:13;102162.22;;;10.48;73.23
81913;BME280;71377;50.698;7.164;2024-01-30T11:02:44;102165.88;;;10.33;74.20
81913;BME280;71377;50.698;7.164;2024-01-30T11:05:11;102170.28;;;10.31;74.01
81913;BME280;71377;50.698;7.164;2024-01-30T11:07:41;102160.56;;;10.39;74.06
81913;BME280;71377;50.698;7.164;2024-01-30T11:10:08;102156.34;;;10.22;74.48
81913;BME280;71377;50.698;7.164;2024-01-30T11:12:40;102151.06;;;10.28;74.23
81913;BME280;71377;50.698;7.164;2024-01-30T11:15:13;102151.91;;;10.31;74.11
81913;BME280;71377;50.698;7.164;2024-01-30T11:17:45;102151.97;;;10.25;73.91
81913;BME280;71377;50.698;7.164;2024-01-30T11:20:22;102141.66;;;10.01;75.52
81913;BME280;71377;50.698;7.164;2024-01-30T11:22:53;102148.53;;;10.17;74.77
81913;BME280;71377;50.698;7.164;2024-01-30T11:25:21;102145.84;;;10.20;74.35
81913;BME280;71377;50.698;7.164;2024-01-30T11:27:53;102144.13;;;10.16;74.78
81913;BME280;71377;50.698;7.164;2024-01-30T11:30:30;102146.91;;;10.01;75.17
81913;BME280;71377;50.698;7.164;2024-01-30T11:32:59;102140.81;;;9.97;75.60
81913;BME280;71377;50.698;7.164;2024-01-30T11:35:25;102148.66;;;10.02;75.29
81913;BME280;71377;50.698;7.164;2024-01-30T11:37:52;102152.88;;;10.18;74.32
81913;BME280;71377;50.698;7.164;2024-01-30T11:40:21;102140.63;;;10.15;75.22
81913;BME280;71377;50.698;7.164;2024-01-30T11:42:48;102140.59;;;10.26;74.74
81913;BME280;71377;50.698;7.164;2024-01-30T11:45:15;102144.19;;;10.11;75.96
81913;BME280;71377;50.698;7.164;2024-01-30T11:47:42;102137.94;;;10.22;75.28
81913;BME280;71377;50.698;7.164;2024-01-30T11:50:10;102135.31;;;10.28;74.73
81913;BME280;71377;50.698;7.164;2024-01-30T11:52:37;102127.16;;;10.54;74.35
81913;BME280;71377;50.698;7.164;2024-01-30T11:55:04;102122.06;;;10.38;74.72
81913;BME280;71377;50.698;7.164;2024-01-30T11:57:31;102127.16;;;10.51;74.22
81913;BME280;71377;50.698;7.164;2024-01-30T11:59:57;102128.88;;;10.55;74.19
81913;BME280;71377;50.698;7.164;2024-01-30T12:02:24;102126.13;;;10.65;73.69
81913;BME280;71377;50.698;7.164;2024-01-30T12:04:50;102126.75;;;10.84;73.10
81913;BME280;71377;50.698;7.164;2024-01-30T12:07:16;102125.00;;;10.85;72.82
81913;BME280;71377;50.698;7.164;2024-01-30T12:09:52;102120.72;;;10.76;72.90
81913;BME280;71377;50.698;7.164;2024-01-30T12:12:19;102122.47;;;10.77;73.33
81913;BME280;71377;50.698;7.164;2024-01-30T12:14:46;102123.13;;;10.94;72.43
81913;BME280;71377;50.698;7.164;2024-01-30T12:17:23;102117.91;;;10.91;72.58
81913;BME280;71377;50.698;7.164;2024-01-30T12:19:49;102128.19;;;11.10;71.90
81913;BME280;71377;50.698;7.164;2024-01-30T12:22:16;102123.72;;;11.16;71.33
81913;BME280;71377;50.698;7.164;2024-01-30T12:24:42;102113.19;;;11.16;71.27
81913;BME280;71377;50.698;7.164;2024-01-30T12:27:09;102122.00;;;11.14;71.39
81913;BME280;71377;50.698;7.164;2024-01-30T12:29:35;102112.22;;;11.23;70.99
81913;BME280;71377;50.698;7.164;2024-01-30T12:32:06;102116.84;;;11.06;72.09
81913;BME280;71377;50.698;7.164;2024-01-30T12:34:32;102111.13;;;11.37;70.58
81913;BME280;71377;50.698;7.164;2024-01-30T12:37:12;102105.88;;;11.37;70.59
81913;BME280;71377;50.698;7.164;2024-01-30T12:39:38;102120.09;;;11.23;71.11
81913;BME280;71377;50.698;7.164;2024-01-30T12:42:05;102117.44;;;11.25;71.23
81913;BME280;71377;50.698;7.164;2024-01-30T12:44:32;102128.94;;;11.21;71.53
81913;BME280;71377;50.698;7.164;2024-01-30T12:46:58;102126.31;;;11.18;72.09
81913;BME280;71377;50.698;7.164;2024-01-30T12:49:24;102124.72;;;11.08;72.20
81913;BME280;71377;50.698;7.164;2024-01-30T12:51:51;102129.16;;;11.02;72.61
81913;BME280;71377;50.698;7.164;2024-01-30T12:54:17;102138.91;;;10.96;72.57
81913;BME280;71377;50.698;7.164;2024-01-30T12:56:44;102144.66;;;11.24;71.49